Time;durP1;ratioP1;P1;durP2;ratioP2;P2;SDS_P1;SDS_P2;PMS_P1;PMS_P2;Temp;Humidity;BMP_temperature;BMP_pressure;BME280_temperature;BME280_humidity;BME280_pressure;Samples;Min_cycle;Max_cycle;Signal;HPM_P1;HPM_P2
2022/04/26 03:37:55;;;;;;;;;;;;;;;20.35;43.62;101756.22;7282915;19;153176;-57
2022/04/26 03:40:22;;;;;;;;;;;;;;;20.34;43.97;101746.09;7281934;19;152795;-57
2022/04/26 03:42:48;;;;;;;;;;;;;;;20.30;43.76;101745.84;7283090;19;153627;-57
2022/04/26 03:45:15;;;;;;;;;;;;;;;20.30;43.65;101743.03;7288546;19;151878;-58
2022/04/26 03:47:43;;;;;;;;;;;;;;;20.29;43.92;101743.28;7281218;19;153470;-57
2022/04/26 03:50:14;;;;;;;;;;;;;;;20.27;43.61;101743.56;7280618;19;151618;-57
2022/04/26 03:52:40;;;;;;;;;;;;;;;20.24;43.70;101734.88;7282194;19;152661;-57
2022/04/26 03:55:07;;;;;;;;;;;;;;;20.26;43.68;101743.88;7282864;19;153848;-58
2022/04/26 03:57:34;;;;;;;;;;;;;;;20.25;43.71;101742.19;7280329;19;151928;-59
2022/04/26 04:00:01;;;;;;;;;;;;;;;20.24;44.08;101754.53;7272561;19;153666;-57
2022/04/26 04:02:28;;;;;;;;;;;;;;;20.24;43.96;101749.75;7263862;19;153499;-57
2022/04/26 04:04:55;;;;;;;;;;;;;;;20.23;44.09;101747.22;7279738;19;152030;-57
2022/04/26 04:07:21;;;;;;;;;;;;;;;20.20;43.83;101750.63;7289647;19;152645;-58
2022/04/26 04:09:48;;;;;;;;;;;;;;;20.20;44.16;101748.66;7282909;19;151937;-58
2022/04/26 04:12:15;;;;;;;;;;;;;;;20.21;43.79;101750.34;7283234;19;152684;-58
2022/04/26 04:14:41;;;;;;;;;;;;;;;20.19;43.82;101746.97;7278466;19;153215;-58
2022/04/26 04:17:08;;;;;;;;;;;;;;;20.19;44.04;101751.75;7279306;19;152923;-59
2022/04/26 04:19:35;;;;;;;;;;;;;;;20.16;44.36;101753.16;7279290;19;153718;-59
2022/04/26 04:22:02;;;;;;;;;;;;;;;20.16;44.27;101753.16;7276307;19;153486;-59
2022/04/26 04:24:29;;;;;;;;;;;;;;;20.14;44.09;101747.00;7279402;19;151728;-58
2022/04/26 04:26:56;;;;;;;;;;;;;;;20.15;44.22;101759.91;7276884;19;153846;-57
2022/04/26 04:29:23;;;;;;;;;;;;;;;20.13;44.03;101762.13;7285867;19;151819;-57
2022/04/26 04:31:50;;;;;;;;;;;;;;;20.14;44.22;101761.03;7279301;19;153342;-58
2022/04/26 04:34:17;;;;;;;;;;;;;;;20.11;43.92;101764.41;7278985;19;153582;-57
2022/04/26 04:36:43;;;;;;;;;;;;;;;20.09;43.81;101766.63;7279058;19;151470;-58
2022/04/26 04:39:10;;;;;;;;;;;;;;;20.09;44.19;101772.25;7279213;19;152610;-58
2022/04/26 04:41:37;;;;;;;;;;;;;;;20.13;44.59;101772.50;7277849;19;153365;-57
2022/04/26 04:44:05;;;;;;;;;;;;;;;20.18;43.96;101778.97;7277396;19;151650;-57
2022/04/26 04:46:31;;;;;;;;;;;;;;;20.20;44.25;101784.28;7279144;19;153371;-57
2022/04/26 04:48:58;;;;;;;;;;;;;;;20.25;44.37;101775.88;7285374;19;153273;-58
2022/04/26 04:51:25;;;;;;;;;;;;;;;20.32;44.67;101779.22;7280383;19;152841;-58
2022/04/26 04:53:51;;;;;;;;;;;;;;;20.37;44.62;101776.41;7276305;19;153738;-58
2022/04/26 04:56:18;;;;;;;;;;;;;;;20.44;44.65;101778.91;7278791;19;151710;-57
2022/04/26 04:58:45;;;;;;;;;;;;;;;20.50;44.81;101777.72;7277990;19;153160;-57
2022/04/26 05:01:12;;;;;;;;;;;;;;;20.56;44.76;101788.66;7256593;19;153359;-57
2022/04/26 05:03:39;;;;;;;;;;;;;;;20.65;44.57;101794.50;7269556;19;152900;-58
2022/04/26 05:06:05;;;;;;;;;;;;;;;20.73;44.66;101789.13;7276377;19;153423;-58
2022/04/26 05:08:33;;;;;;;;;;;;;;;20.80;44.65;101795.25;7276814;19;153824;-59
2022/04/26 05:11:00;;;;;;;;;;;;;;;20.85;44.31;101795.22;7286885;19;152284;-58
2022/04/26 05:13:27;;;;;;;;;;;;;;;20.95;43.99;101796.28;7116639;19;3087038;-57
2022/04/26 05:15:53;;;;;;;;;;;;;;;21.03;44.11;101795.69;7280938;19;151753;-57
2022/04/26 05:18:20;;;;;;;;;;;;;;;21.09;43.60;101800.13;7281338;19;154251;-59
2022/04/26 05:20:47;;;;;;;;;;;;;;;21.17;43.36;101799.53;7278900;19;154106;-59
2022/04/26 05:25:59;;;;;;;;;;;;;;;21.33;43.38;101803.09;7278273;19;153146;-58
2022/04/26 05:28:25;;;;;;;;;;;;;;;21.39;43.25;101814.03;7277733;19;154147;-58
2022/04/26 05:30:52;;;;;;;;;;;;;;;21.46;43.64;101813.66;7279975;19;151939;-57
2022/04/26 05:33:20;;;;;;;;;;;;;;;21.51;42.74;101817.28;7287579;19;154814;-59
2022/04/26 05:35:48;;;;;;;;;;;;;;;21.58;42.82;101819.75;7279368;19;151819;-58
2022/04/26 05:38:15;;;;;;;;;;;;;;;21.63;42.60;101826.16;7280888;19;152635;-60
2022/04/26 05:40:42;;;;;;;;;;;;;;;21.69;42.49;101825.00;7278556;19;153314;-58
2022/04/26 05:43:09;;;;;;;;;;;;;;;21.75;42.23;101834.25;7277998;19;151724;-58
2022/04/26 05:45:35;;;;;;;;;;;;;;;21.81;42.33;101829.38;7277062;19;153353;-58
2022/04/26 05:48:08;;;;;;;;;;;;;;;21.87;42.24;101836.66;7277846;19;154224;-58
2022/04/26 05:50:34;;;;;;;;;;;;;;;21.91;41.98;101835.75;7279956;19;151827;-58
2022/04/26 05:53:01;;;;;;;;;;;;;;;21.97;42.09;101834.63;7277621;19;153252;-57
2022/04/26 05:55:28;;;;;;;;;;;;;;;22.03;42.06;101844.66;7287066;19;153324;-59
2022/04/26 05:57:55;;;;;;;;;;;;;;;22.09;42.04;101842.66;7279162;19;153490;-58
2022/04/26 06:00:21;;;;;;;;;;;;;;;22.14;41.78;101849.06;7278509;19;154007;-59
2022/04/26 06:02:51;;;;;;;;;;;;;;;22.20;41.33;101844.22;7278553;19;151687;-59
2022/04/26 06:05:19;;;;;;;;;;;;;;;22.25;41.22;101849.81;7279030;19;153337;-57
2022/04/26 06:07:51;;;;;;;;;;;;;;;22.30;41.35;101855.38;7277874;19;154317;-60
2022/04/26 06:10:20;;;;;;;;;;;;;;;22.34;41.11;101862.09;7280286;19;151812;-58
2022/04/26 06:12:48;;;;;;;;;;;;;;;22.40;40.97;101857.22;7281454;19;153686;-58
2022/04/26 06:15:17;;;;;;;;;;;;;;;22.45;41.46;101860.81;7282924;19;153225;-57
2022/04/26 06:17:46;;;;;;;;;;;;;;;22.50;41.87;101857.94;7293913;19;151958;-57
2022/04/26 06:20:22;;;;;;;;;;;;;;;22.56;41.64;101858.75;7283629;19;153547;-59
2022/04/26 06:22:49;;;;;;;;;;;;;;;22.63;41.51;101856.38;7283831;19;152050;-58
2022/04/26 06:25:16;;;;;;;;;;;;;;;22.69;41.08;101859.97;7284229;19;151865;-57
2022/04/26 06:27:47;;;;;;;;;;;;;;;22.73;41.10;101861.09;7284746;19;153856;-59
2022/04/26 06:30:22;;;;;;;;;;;;;;;22.76;40.49;101866.94;7285023;19;151792;-59
2022/04/26 06:32:49;;;;;;;;;;;;;;;22.79;40.28;101863.56;7285918;19;152462;-58
2022/04/26 06:35:16;;;;;;;;;;;;;;;22.81;40.24;101872.53;7281730;19;153432;-58
2022/04/26 06:37:44;;;;;;;;;;;;;;;22.84;40.07;101877.56;7290957;19;151819;-58
2022/04/26 06:40:14;;;;;;;;;;;;;;;22.85;39.51;101878.41;7283279;19;152721;-58
2022/04/26 06:42:41;;;;;;;;;;;;;;;;;;7285701;19;151714;-58
2022/04/26 06:45:08;;;;;;;;;;;;;;;22.85;39.28;101879.22;7283517;19;181544;-59
2022/04/26 06:47:34;;;;;;;;;;;;;;;22.86;39.77;101877.25;7283676;19;151934;-58
2022/04/26 06:50:01;;;;;;;;;;;;;;;;;;7284290;19;151776;-59
2022/04/26 06:52:28;;;;;;;;;;;;;;;;;;7283271;19;180016;-58
2022/04/26 06:54:55;;;;;;;;;;;;;;;22.84;39.02;101886.03;7282467;19;181232;-60
2022/04/26 06:57:22;;;;;;;;;;;;;;;22.83;38.98;101892.81;7284329;19;152006;-58
2022/04/26 06:59:49;;;;;;;;;;;;;;;22.82;38.96;101896.75;7291544;19;152646;-58
2022/04/26 07:02:16;;;;;;;;;;;;;;;22.81;39.08;101897.03;7284109;19;152023;-60
2022/04/26 07:04:43;;;;;;;;;;;;;;;22.63;37.28;101899.47;7284906;19;152658;-60
2022/04/26 07:07:10;;;;;;;;;;;;;;;22.38;36.12;101907.38;7280045;19;154699;-59
2022/04/26 07:09:37;;;;;;;;;;;;;;;22.41;36.59;101909.59;7283862;19;151774;-59
2022/04/26 07:12:04;;;;;;;;;;;;;;;22.38;36.92;101913.00;7283210;19;152287;-59
2022/04/26 07:14:30;;;;;;;;;;;;;;;22.34;37.23;101911.94;7279129;19;153281;-60
2022/04/26 07:17:00;;;;;;;;;;;;;;;22.32;37.23;101912.22;7282769;19;152120;-59
2022/04/26 07:19:27;;;;;;;;;;;;;;;22.31;37.20;101918.97;7283271;19;153567;-58
2022/04/26 07:21:53;;;;;;;;;;;;;;;22.26;37.01;101924.66;7287591;19;153231;-58
2022/04/26 07:24:33;;;;;;;;;;;;;;;22.25;37.24;101922.16;7279635;19;153402;-58
2022/04/26 07:27:00;;;;;;;;;;;;;;;22.20;37.42;101920.22;7277607;19;153246;-58
2022/04/26 07:29:26;;;;;;;;;;;;;;;22.17;37.49;101926.44;7282821;19;151943;-58
2022/04/26 07:31:53;;;;;;;;;;;;;;;22.16;37.54;101924.78;7282996;19;153376;-58
2022/04/26 07:34:24;;;;;;;;;;;;;;;22.13;37.79;101922.53;7281527;19;153389;-59
2022/04/26 07:36:59;;;;;;;;;;;;;;;22.10;38.19;101928.78;7283157;19;152188;-59
2022/04/26 07:39:26;;;;;;;;;;;;;;;22.16;38.14;101928.44;7283276;19;153370;-59
2022/04/26 07:41:54;;;;;;;;;;;;;;;22.16;38.59;101931.25;7282413;19;153936;-60
2022/04/26 07:44:20;;;;;;;;;;;;;;;22.08;38.75;101933.84;7289877;19;152017;-59
2022/04/26 07:46:48;;;;;;;;;;;;;;;22.01;38.57;101939.81;7279768;19;153306;-59
2022/04/26 07:49:15;;;;;;;;;;;;;;;21.97;38.57;101930.28;7280174;19;152104;-59
2022/04/26 07:51:42;;;;;;;;;;;;;;;21.94;38.84;101942.13;7283306;19;154446;-60
2022/04/26 07:54:09;;;;;;;;;;;;;;;21.90;38.23;101940.16;7281461;19;154207;-58
2022/04/26 07:56:36;;;;;;;;;;;;;;;21.86;38.79;101947.50;7280232;19;152178;-59
2022/04/26 07:59:04;;;;;;;;;;;;;;;21.82;38.46;101938.81;7283509;19;152668;-60
2022/04/26 08:01:31;;;;;;;;;;;;;;;21.84;38.58;101938.53;7279676;19;154225;-59
2022/04/26 08:03:58;;;;;;;;;;;;;;;21.82;38.09;101950.06;7283339;19;152126;-59
2022/04/26 08:06:25;;;;;;;;;;;;;;;21.86;38.22;101953.97;7287187;19;152979;-60
2022/04/26 08:08:53;;;;;;;;;;;;;;;21.87;38.28;101958.47;7282875;19;151749;-58
2022/04/26 08:11:21;;;;;;;;;;;;;;;21.91;37.84;101962.38;7282306;19;152599;-60
2022/04/26 08:13:48;;;;;;;;;;;;;;;21.89;37.77;101958.19;7278301;19;154064;-60
2022/04/26 08:16:17;;;;;;;;;;;;;;;21.89;37.63;101964.66;7280602;19;152095;-59
2022/04/26 08:18:43;;;;;;;;;;;;;;;21.86;38.00;101964.38;7283015;19;153592;-60
2022/04/26 08:21:14;;;;;;;;;;;;;;;21.93;37.94;101964.94;7282469;19;154215;-57
2022/04/26 08:29:15;;;;;;;;;;;;;;;22.01;37.40;101967.97;7289682;19;153540;-58
2022/04/26 08:31:42;;;;;;;;;;;;;;;22.04;37.57;101966.53;7280661;19;153458;-58
2022/04/26 08:34:09;;;;;;;;;;;;;;;22.06;37.58;101970.75;7281105;19;153974;-58
2022/04/26 08:36:36;;;;;;;;;;;;;;;22.08;37.50;101973.25;7281313;19;151698;-59
2022/04/26 08:39:03;;;;;;;;;;;;;;;22.14;37.04;101977.72;7282351;19;152641;-59
2022/04/26 08:41:29;;;;;;;;;;;;;;;22.16;37.10;101976.28;7280345;19;154002;-58
2022/04/26 08:43:57;;;;;;;;;;;;;;;22.17;37.24;101974.28;7282003;19;152006;-59
2022/04/26 08:50:59;;;;;;;;;;;;;;;22.21;37.10;101972.59;7279753;19;153330;-58
2022/04/26 08:52:00;;;;;;;;;;;;;;;22.28;37.20;101978.72;7280869;19;153525;-57
2022/04/26 08:54:29;;;;;;;;;;;;;;;22.27;37.08;101976.19;7281266;19;153421;-59
2022/04/26 08:56:56;;;;;;;;;;;;;;;22.30;36.64;101981.25;7281631;19;153050;-57
2022/04/26 08:59:22;;;;;;;;;;;;;;;22.31;36.58;101995.00;7281508;19;153560;-60
2022/04/26 09:01:49;;;;;;;;;;;;;;;22.31;36.70;101995.00;7279477;19;153988;-57
2022/04/26 09:04:17;;;;;;;;;;;;;;;22.34;36.96;101988.81;7280768;19;152542;-59
2022/04/26 09:06:45;;;;;;;;;;;;;;;22.33;36.73;101989.94;7278903;19;153333;-59
2022/04/26 09:09:13;;;;;;;;;;;;;;;22.31;36.69;101980.94;7279118;19;153735;-58
2022/04/26 09:11:40;;;;;;;;;;;;;;;22.33;36.32;101978.66;7288485;19;152164;-57
2022/04/26 09:14:09;;;;;;;;;;;;;;;22.32;36.54;101987.41;7277299;19;154469;-57
2022/04/26 09:16:36;;;;;;;;;;;;;;;22.33;36.24;101984.31;7281116;19;151745;-60
2022/04/26 09:19:06;;;;;;;;;;;;;;;22.34;36.67;101987.97;7280065;19;153748;-58
2022/04/26 09:21:34;;;;;;;;;;;;;;;22.33;36.70;101991.91;7278336;19;155149;-60
2022/04/26 09:24:00;;;;;;;;;;;;;;;22.40;35.75;101992.38;7266675;19;152664;-58
2022/04/26 09:26:34;;;;;;;;;;;;;;;22.43;35.95;101989.84;7279100;19;152685;-59
2022/04/26 09:29:02;;;;;;;;;;;;;;;22.39;35.96;101993.56;7256471;19;154098;-59
2022/04/26 09:31:30;;;;;;;;;;;;;;;22.41;36.06;101991.25;7270891;19;151963;-60
2022/04/26 09:33:59;;;;;;;;;;;;;;;22.38;36.26;101989.03;7283460;19;152754;-56
2022/04/26 09:36:31;;;;;;;;;;;;;;;22.34;36.07;101986.00;7278768;19;152401;-57
2022/04/26 09:38:58;;;;;;;;;;;;;;;22.37;36.24;101990.16;7278567;19;154586;-59
2022/04/26 09:41:26;;;;;;;;;;;;;;;22.39;35.79;101994.41;7277858;19;153208;-58
2022/04/26 09:44:03;;;;;;;;;;;;;;;22.45;35.98;101987.56;7278622;19;152501;-58
2022/04/26 09:46:42;;;;;;;;;;;;;;;22.42;36.17;101984.50;7277530;19;153183;-58
2022/04/26 09:49:10;;;;;;;;;;;;;;;22.44;35.63;101991.50;7283800;19;154060;-57
2022/04/26 09:51:37;;;;;;;;;;;;;;;22.45;36.03;101987.56;7284073;19;151929;-60
2022/04/26 09:54:04;;;;;;;;;;;;;;;22.49;36.01;101993.44;7284378;19;153434;-57
2022/04/26 09:56:32;;;;;;;;;;;;;;;22.50;35.79;101990.31;7290675;19;152373;-59
2022/04/26 09:59:00;;;;;;;;;;;;;;;22.50;35.70;101993.16;7284786;19;152867;-59
2022/04/26 10:01:29;;;;;;;;;;;;;;;22.53;35.63;101991.72;7284214;19;154436;-59
2022/04/26 10:04:02;;;;;;;;;;;;;;;22.53;35.99;101991.72;7284463;19;152017;-58
2022/04/26 10:06:40;;;;;;;;;;;;;;;22.56;35.66;101997.59;7284294;19;153396;-58
2022/04/26 10:09:08;;;;;;;;;;;;;;;22.54;35.88;101987.75;7283051;19;152888;-59
2022/04/26 10:11:34;;;;;;;;;;;;;;;22.57;35.63;101978.72;7285523;19;151958;-59
2022/04/26 10:14:02;;;;;;;;;;;;;;;22.58;35.44;101988.81;7281638;19;153423;-59
2022/04/26 10:16:30;;;;;;;;;;;;;;;22.57;35.25;101993.66;7282058;19;154106;-59
2022/04/26 10:19:07;;;;;;;;;;;;;;;22.59;35.29;101991.38;7292132;19;151930;-57
2022/04/26 10:21:39;;;;;;;;;;;;;;;22.61;35.17;101985.44;7283684;19;153853;-59
2022/04/26 10:24:12;;;;;;;;;;;;;;;22.59;35.45;101988.53;7283535;19;151572;-59
2022/04/26 10:26:39;;;;;;;;;;;;;;;22.61;35.28;101997.56;7284749;19;153608;-60
2022/04/26 10:29:06;;;;;;;;;;;;;;;22.61;35.72;101991.06;7282450;19;154902;-58
2022/04/26 10:31:36;;;;;;;;;;;;;;;22.63;35.46;101992.44;7282982;19;151835;-58
2022/04/26 10:34:26;;;;;;;;;;;;;;;22.61;35.08;101994.72;7283742;19;152803;-58
2022/04/26 10:36:55;;;;;;;;;;;;;;;22.61;35.06;101991.91;7283426;19;152297;-57
2022/04/26 10:39:36;;;;;;;;;;;;;;;22.62;35.45;101993.56;7283265;19;151801;-59
2022/04/26 10:42:07;;;;;;;;;;;;;;;22.62;35.13;101987.94;7290967;19;152781;-59
2022/04/26 10:44:41;;;;;;;;;;;;;;;22.61;35.15;101993.91;7283673;19;151738;-59
2022/04/26 10:47:07;;;;;;;;;;;;;;;22.61;35.53;101996.72;7282227;19;153342;-59
2022/04/26 10:49:43;;;;;;;;;;;;;;;22.60;35.61;101993.03;7282453;19;153378;-57
2022/04/26 10:52:13;;;;;;;;;;;;;;;22.61;35.34;101988.25;7283229;19;151887;-59
2022/04/26 10:54:58;;;;;;;;;;;;;;;22.60;35.12;101989.38;7284331;19;152883;-59
2022/04/26 10:57:26;;;;;;;;;;;;;;;22.60;35.22;101995.03;7281529;19;153334;-60
2022/04/26 10:59:54;;;;;;;;;;;;;;;22.60;35.32;101987.41;7281939;19;152041;-60
2022/04/26 11:02:21;;;;;;;;;;;;;;;22.59;35.43;101991.38;7287675;19;152029;-60
2022/04/26 11:04:55;;;;;;;;;;;;;;;22.58;35.26;101992.50;7281601;19;151658;-57
2022/04/26 11:07:26;;;;;;;;;;;;;;;22.60;35.33;101984.59;7281616;19;154968;-59
2022/04/26 11:09:54;;;;;;;;;;;;;;;22.59;34.95;101990.53;7282978;19;153553;-61
2022/04/26 11:12:22;;;;;;;;;;;;;;;22.57;35.25;101990.00;7283902;19;152237;-62
2022/04/26 11:14:49;;;;;;;;;;;;;;;22.57;35.02;101987.19;7281742;19;153516;-62
2022/04/26 11:17:17;;;;;;;;;;;;;;;22.57;34.99;101979.56;7281415;19;153372;-59
2022/04/26 11:19:51;;;;;;;;;;;;;;;22.54;35.11;101991.41;7283117;19;151678;-59
2022/04/26 11:22:21;;;;;;;;;;;;;;;22.57;35.12;101992.81;7284048;19;152756;-58
2022/04/26 11:30:43;;;;;;;;;;;;;;;22.45;35.14;101984.75;7281059;19;152549;-58
2022/04/26 11:33:11;;;;;;;;;;;;;;;22.45;35.30;101990.38;7282621;19;151871;-59
2022/04/26 11:35:39;;;;;;;;;;;;;;;22.45;35.29;101990.38;7279551;19;153373;-57
2022/04/26 11:38:10;;;;;;;;;;;;;;;22.48;35.23;101991.78;7281317;19;153453;-57
2022/04/26 11:40:42;;;;;;;;;;;;;;;22.46;35.35;101986.44;7282202;19;151929;-60
2022/04/26 11:43:31;;;;;;;;;;;;;;;22.45;35.02;101996.00;7281291;19;153468;-57
2022/04/26 11:45:58;;;;;;;;;;;;;;;22.45;35.19;101987.56;7280571;19;153276;-59
2022/04/26 11:48:28;;;;;;;;;;;;;;;22.35;35.16;101979.19;7286773;19;151889;-60
2022/04/26 11:50:56;;;;;;;;;;;;;;;22.36;35.46;101991.31;7281058;19;154826;-59
2022/04/26 11:53:24;;;;;;;;;;;;;;;22.39;35.18;101991.56;7282246;19;152231;-60
2022/04/26 11:55:57;;;;;;;;;;;;;;;22.38;35.54;101987.06;7282399;19;152422;-59
2022/04/26 11:58:26;;;;;;;;;;;;;;;22.37;35.09;101993.84;7278711;19;154103;-59
2022/04/26 12:00:53;;;;;;;;;;;;;;;22.38;35.07;101989.03;7282340;19;151927;-58
2022/04/26 12:03:22;;;;;;;;;;;;;;;22.39;34.97;101993.56;7282386;19;154340;-58
2022/04/26 12:06:02;;;;;;;;;;;;;;;22.37;35.38;101991.03;7281276;19;153159;-60
2022/04/26 12:08:33;;;;;;;;;;;;;;;22.36;35.30;101989.31;7277521;19;151831;-59
2022/04/26 12:11:18;;;;;;;;;;;;;;;22.37;35.05;101999.47;7287374;19;153029;-58
2022/04/26 12:13:45;;;;;;;;;;;;;;;22.34;35.41;101983.16;7280000;19;151833;-59
2022/04/26 12:16:12;;;;;;;;;;;;;;;22.33;35.23;101992.75;7281652;19;151634;-59
2022/04/26 12:19:09;;;;;;;;;;;;;;;22.25;35.50;101979.31;7281261;19;153272;-57
2022/04/26 12:21:52;;;;;;;;;;;;;;;22.20;35.51;101986.94;7279071;19;151567;-59
2022/04/26 12:24:23;;;;;;;;;;;;;;;22.17;35.52;101991.19;7281604;19;153894;-59
2022/04/26 12:26:54;;;;;;;;;;;;;;;22.12;36.13;101989.25;7281036;19;153572;-59
2022/04/26 12:29:21;;;;;;;;;;;;;;;22.09;35.49;101991.81;7281330;19;151771;-60
2022/04/26 12:31:48;;;;;;;;;;;;;;;22.08;35.62;101992.94;7281854;19;152741;-59
2022/04/26 12:34:17;;;;;;;;;;;;;;;22.09;35.33;101991.81;7287496;19;154065;-58
2022/04/26 12:36:52;;;;;;;;;;;;;;;22.06;35.73;101993.25;7280933;19;153535;-58
2022/04/26 12:39:20;;;;;;;;;;;;;;;22.05;35.64;102004.81;7278567;19;154374;-58
2022/04/26 12:41:51;;;;;;;;;;;;;;;22.02;36.00;101992.16;7280409;19;151917;-60
2022/04/26 12:44:18;;;;;;;;;;;;;;;22.02;35.67;101989.34;7280440;19;152625;-57
2022/04/26 12:52:47;;;;;;;;;;;;;;;22.06;36.00;101983.97;7279562;19;153392;-61
2022/04/26 12:55:24;;;;;;;;;;;;;;;22.04;35.67;101987.06;7276654;19;154259;-59
2022/04/26 12:57:54;;;;;;;;;;;;;;;22.00;35.70;101980.34;7287475;19;152040;-58
2022/04/26 13:00:22;;;;;;;;;;;;;;;21.98;35.68;101982.63;7277988;19;154414;-59
2022/04/26 13:02:49;;;;;;;;;;;;;;;22.03;35.39;101985.38;7278131;19;151991;-59
2022/04/26 13:05:17;;;;;;;;;;;;;;;22.00;35.32;101982.31;7279808;19;153491;-59
2022/04/26 13:07:52;;;;;;;;;;;;;;;21.98;35.71;101987.41;7276655;19;154686;-60
2022/04/26 13:10:24;;;;;;;;;;;;;;;21.92;36.22;101980.94;7279810;19;152280;-59
2022/04/26 13:12:51;;;;;;;;;;;;;;;21.90;35.67;101982.34;7277087;19;151916;-60
2022/04/26 13:15:19;;;;;;;;;;;;;;;21.86;36.11;101981.25;7275082;19;153150;-58
2022/04/26 13:17:50;;;;;;;;;;;;;;;21.89;35.68;101984.34;7286502;19;152143;-59
2022/04/26 13:20:20;;;;;;;;;;;;;;;21.90;35.69;101982.34;7277184;19;153950;-58
2022/04/26 13:22:46;;;;;;;;;;;;;;;21.91;36.03;101970.81;7282260;19;151787;-58
2022/04/26 13:25:13;;;;;;;;;;;;;;;21.87;35.80;101975.34;7284277;19;152887;-59
2022/04/26 13:27:40;;;;;;;;;;;;;;;21.83;35.87;101981.84;7282152;19;153194;-59
2022/04/26 13:30:08;;;;;;;;;;;;;;;21.78;35.94;101973.44;7284794;19;151978;-60
2022/04/26 13:32:35;;;;;;;;;;;;;;;21.76;35.90;101981.38;7285859;19;152761;-59
2022/04/26 13:35:01;;;;;;;;;;;;;;;21.77;36.24;101977.38;7285027;19;153214;-58
2022/04/26 13:37:29;;;;;;;;;;;;;;;21.77;35.87;101969.78;7284075;19;151990;-58
2022/04/26 13:39:58;;;;;;;;;;;;;;;21.76;36.33;101970.91;7291045;19;152703;-60
2022/04/26 13:42:27;;;;;;;;;;;;;;;21.71;36.16;101966.16;7284546;19;152112;-58
2022/04/26 13:44:55;;;;;;;;;;;;;;;21.74;36.23;101967.56;7285959;19;154214;-60
2022/04/26 13:47:22;;;;;;;;;;;;;;;21.68;35.79;101958.31;7284823;19;153325;-58
2022/04/26 13:49:52;;;;;;;;;;;;;;;21.62;36.24;101959.47;7285576;19;152053;-61
2022/04/26 13:52:22;;;;;;;;;;;;;;;21.59;36.25;101971.31;7286249;19;153020;-59
2022/04/26 13:54:49;;;;;;;;;;;;;;;21.55;36.75;101970.22;7282183;19;153388;-60
2022/04/26 13:57:16;;;;;;;;;;;;;;;21.55;36.35;101964.59;7285159;19;151894;-60
2022/04/26 13:59:43;;;;;;;;;;;;;;;21.53;36.22;101954.78;7284607;19;153595;-59
2022/04/26 14:02:11;;;;;;;;;;;;;;;21.51;36.23;101960.69;7291210;19;154644;-60
2022/04/26 14:04:38;;;;;;;;;;;;;;;21.50;36.06;101963.78;7285643;19;152768;-60
2022/04/26 14:07:05;;;;;;;;;;;;;;;21.49;36.08;101957.31;7283855;19;153396;-58
2022/04/26 14:09:33;;;;;;;;;;;;;;;21.45;36.23;101967.47;7282815;19;151925;-57
2022/04/26 14:12:00;;;;;;;;;;;;;;;21.44;36.42;101962.97;7284695;19;153951;-60
2022/04/26 14:22:46;;;;;;;;;;;;;;;21.36;36.43;101957.97;7282992;19;153450;-58
2022/04/26 14:25:13;;;;;;;;;;;;;;;21.36;36.72;101957.13;7291782;19;151671;-59
2022/04/26 14:27:42;;;;;;;;;;;;;;;21.37;36.78;101956.00;7280705;19;154592;-58
2022/04/26 14:30:13;;;;;;;;;;;;;;;21.33;36.58;101963.31;7285059;19;152409;-59
2022/04/26 14:33:00;;;;;;;;;;;;;;;21.33;36.47;101960.50;7280838;19;155215;-59
2022/04/26 14:35:29;;;;;;;;;;;;;;;21.33;36.77;101964.16;7283352;19;154179;-57
2022/04/26 14:37:56;;;;;;;;;;;;;;;21.30;36.77;101957.13;7281716;19;151746;-57
2022/04/26 14:40:23;;;;;;;;;;;;;;;21.30;36.74;101956.31;7283627;19;152915;-59
2022/04/26 14:42:50;;;;;;;;;;;;;;;21.29;36.51;101954.63;7283105;19;153205;-59
2022/04/26 14:45:17;;;;;;;;;;;;;;;21.27;36.50;101962.50;7283832;19;152263;-59
2022/04/26 14:47:46;;;;;;;;;;;;;;;21.23;36.44;101965.06;7290181;19;152500;-58
2022/04/26 14:50:19;;;;;;;;;;;;;;;21.21;36.74;101958.06;7283441;19;151814;-58
2022/04/26 14:52:45;;;;;;;;;;;;;;;21.21;36.83;101961.69;7280588;19;151865;-60
2022/04/26 14:55:12;;;;;;;;;;;;;;;21.20;36.55;101964.81;7282548;19;154194;-60
2022/04/26 14:57:40;;;;;;;;;;;;;;;21.18;36.51;101970.69;7283486;19;151893;-59
2022/04/26 15:00:08;;;;;;;;;;;;;;;21.18;36.62;101961.44;7283343;19;151854;-60
2022/04/26 15:02:41;;;;;;;;;;;;;;;21.18;36.53;101956.66;7282019;19;153404;-58
2022/04/26 15:05:08;;;;;;;;;;;;;;;21.19;36.78;101963.13;7283274;19;151910;-59
2022/04/26 15:10:21;;;;;;;;;;;;;;;21.16;36.75;101963.69;7288864;19;151769;-60
2022/04/26 15:18:18;;;;;;;;;;;;;;;21.14;36.68;101974.38;7283261;19;151897;-58
2022/04/26 15:20:48;;;;;;;;;;;;;;;21.14;37.05;101960.31;7279311;19;153978;-59
2022/04/26 15:23:15;;;;;;;;;;;;;;;21.12;36.93;101968.19;7278703;19;153665;-59
2022/04/26 15:25:48;;;;;;;;;;;;;;;21.10;37.18;101959.19;7282610;19;151767;-58
2022/04/26 15:28:15;;;;;;;;;;;;;;;21.12;36.80;101971.00;7281980;19;153609;-59
2022/04/26 15:30:42;;;;;;;;;;;;;;;21.10;36.78;101973.25;7288800;19;154296;-60
2022/04/26 15:33:09;;;;;;;;;;;;;;;21.09;37.08;101960.31;7281488;19;153384;-57
2022/04/26 15:35:36;;;;;;;;;;;;;;;21.08;37.12;101964.25;7281244;19;154315;-59
2022/04/26 15:38:03;;;;;;;;;;;;;;;21.07;36.75;101956.97;7281986;19;152094;-60
2022/04/26 15:40:30;;;;;;;;;;;;;;;21.05;37.10;101962.88;7282411;19;152924;-60
2022/04/26 15:42:57;;;;;;;;;;;;;;;21.05;36.77;101957.25;7282005;19;153798;-59
2022/04/26 15:45:23;;;;;;;;;;;;;;;21.04;36.99;101969.59;7280029;19;151991;-60
2022/04/26 15:47:53;;;;;;;;;;;;;;;21.04;36.71;101965.94;7281571;19;152747;-60
2022/04/26 15:50:20;;;;;;;;;;;;;;;21.04;37.02;101969.59;7278056;19;155613;-59
2022/04/26 15:52:47;;;;;;;;;;;;;;;21.03;36.91;101959.47;7287941;19;152085;-60
2022/04/26 15:55:13;;;;;;;;;;;;;;;21.01;36.80;101970.19;7281895;19;153368;-61
2022/04/26 15:57:42;;;;;;;;;;;;;;;20.99;36.75;101972.44;7281652;19;151753;-59
2022/04/26 16:00:11;;;;;;;;;;;;;;;20.99;37.05;101975.25;7282431;19;152043;-58
2022/04/26 16:02:40;;;;;;;;;;;;;;;20.98;37.15;101975.53;7280748;19;156061;-59
2022/04/26 16:05:07;;;;;;;;;;;;;;;20.97;36.81;101973.84;7282467;19;152110;-58
2022/04/26 16:07:34;;;;;;;;;;;;;;;20.95;36.83;101976.94;7280882;19;153209;-58
2022/04/26 16:21:04;;;;;;;;;;;;;;;20.88;36.98;101986.81;7281168;19;152722;-58
2022/04/26 16:23:31;;;;;;;;;;;;;;;20.87;37.38;101985.97;7277543;19;153258;-60
2022/04/26 16:26:05;;;;;;;;;;;;;;;20.85;37.30;101991.84;7281494;19;151950;-58
2022/04/26 16:28:33;;;;;;;;;;;;;;;20.84;37.24;101994.97;7280793;19;154884;-59
2022/04/26 16:30:59;;;;;;;;;;;;;;;20.82;37.17;101992.44;7279602;19;153219;-58
2022/04/26 16:33:26;;;;;;;;;;;;;;;20.83;37.26;101999.75;7280063;19;151966;-60
2022/04/26 16:35:54;;;;;;;;;;;;;;;20.82;37.39;101994.41;7281511;19;152901;-58
2022/04/26 16:38:21;;;;;;;;;;;;;;;20.79;37.11;101990.22;7287135;19;153361;-58
2022/04/26 16:40:48;;;;;;;;;;;;;;;20.78;37.12;101993.28;7280562;19;154133;-58
2022/04/26 16:43:16;;;;;;;;;;;;;;;20.79;36.87;101992.19;7277824;19;153377;-60
2022/04/26 16:45:43;;;;;;;;;;;;;;;20.77;37.21;102002.84;7280353;19;151781;-58
2022/04/26 16:48:10;;;;;;;;;;;;;;;20.76;37.23;101989.91;7278201;19;153312;-59
2022/04/26 16:50:37;;;;;;;;;;;;;;;20.74;36.99;102001.47;7275168;19;153966;-59
2022/04/26 16:53:05;;;;;;;;;;;;;;;20.73;37.24;102002.56;7279951;19;152203;-59
2022/04/26 16:55:32;;;;;;;;;;;;;;;20.73;37.22;101996.97;7278204;19;152707;-58
2022/04/26 16:57:59;;;;;;;;;;;;;;;20.72;37.25;101998.06;7278541;19;154327;-61
2022/04/26 17:00:26;;;;;;;;;;;;;;;20.73;36.90;102008.19;7285696;19;151859;-59
2022/04/26 17:02:53;;;;;;;;;;;;;;;20.69;37.04;102000.63;7275680;19;153902;-58